Time;durP1;ratioP1;P1;durP2;ratioP2;P2;SDS_P1;SDS_P2;PMS_P1;PMS_P2;Temp;Humidity;BMP_temperature;BMP_pressure;BME280_temperature;BME280_humidity;BME280_pressure;Samples;Min_cycle;Max_cycle;Signal;HPM_P1;HPM_P2
2022/05/06 00:01:09;;;;;;;;;;;;;;;;;;5053729;28;19934;-51
2022/05/06 00:03:37;;;;;;;;;;;;;;;;;;5053958;28;19909;-50
2022/05/06 00:06:03;;;;;;;;;;;;;;;;;;5053550;28;19920;-51
2022/05/06 00:08:30;;;;;;;;;;;;;;;;;;5053873;28;20425;-51
2022/05/06 00:10:56;;;;;;;;;;;;;;;;;;5062524;28;20327;-54
2022/05/06 00:13:24;;;;;;;;;;;;;;;;;;5072420;28;19909;-52
2022/05/06 00:15:50;;;;;;;;;;;;;;;;;;5073462;28;20377;-51
2022/05/06 00:18:18;;;;;;;;;;;;;;;;;;5073513;28;20377;-48
2022/05/06 00:20:44;;;;;;;;;;;;;;;;;;5073667;28;19923;-55
2022/05/06 00:23:11;;;;;;;;;;;;;;;;;;5072824;28;19912;-50
2022/05/06 00:25:37;;;;;;;;;;;;;;;;;;5073274;28;19912;-54
2022/05/06 00:28:04;;;;;;;;;;;;;;;;;;5073175;28;19978;-56
2022/05/06 00:30:30;;;;;;;;;;;;;;;;;;5072987;28;19959;-53
2022/05/06 00:32:57;;;;;;;;;;;;;;;;;;5073212;28;19966;-55
2022/05/06 00:35:23;;;;;;;;;;;;;;;;;;5072689;28;19923;-51
2022/05/06 00:37:50;;;;;;;;;;;;;;;;;;5063904;28;20286;-50
2022/05/06 00:40:16;;;;;;;;;;;;;;;;;;5053610;28;19932;-54
2022/05/06 00:42:43;;;;;;;;;;;;;;;;;;5053188;28;20026;-53
2022/05/06 00:45:10;;;;;;;;;;;;;;;;;;5053040;28;19912;-55
2022/05/06 00:47:36;;;;;;;;;;;;;;;;;;5052438;28;20008;-51
2022/05/06 00:50:03;;;;;;;;;;;;;;;;;;5052830;28;19909;-52
2022/05/06 00:52:29;;;;;;;;;;;;;;;;;;5053206;28;19909;-54
2022/05/06 00:54:56;;;;;;;;;;;;;;;;;;5053247;28;19952;-51
2022/05/06 00:57:22;;;;;;;;;;;;;;;;;;5052813;28;19916;-45
2022/05/06 01:02:33;;;;;;;;;;;;;;;;;;5051894;28;20370;-50
2022/05/06 01:05:00;;;;;;;;;;;;;;;;;;5051289;28;19925;-51
2022/05/06 01:07:26;;;;;;;;;;;;;;;;;;5052080;28;20019;-53
2022/05/06 01:09:53;;;;;;;;;;;;;;;;;;5052292;28;19920;-53
2022/05/06 01:12:19;;;;;;;;;;;;;;;;;;5053059;28;19999;-50
2022/05/06 01:14:46;;;;;;;;;;;;;;;;;;5052504;28;19923;-59
2022/05/06 01:17:13;;;;;;;;;;;;;;;;;;5053001;28;19954;-58
2022/05/06 01:19:39;;;;;;;;;;;;;;;;;;5053181;28;19915;-55
2022/05/06 01:22:06;;;;;;;;;;;;;;;;;;5056922;28;19909;-56
2022/05/06 01:24:32;;;;;;;;;;;;;;;;;;5064425;28;19916;-59
2022/05/06 01:26:58;;;;;;;;;;;;;;;;;;5052383;28;20376;-56
2022/05/06 01:29:25;;;;;;;;;;;;;;;;;;5052195;28;19979;-56
2022/05/06 01:31:52;;;;;;;;;;;;;;;;;;5052487;28;19909;-49
2022/05/06 01:34:18;;;;;;;;;;;;;;;;;;5052136;28;19940;-54
2022/05/06 01:36:45;;;;;;;;;;;;;;;;;;5051076;28;19916;-48
2022/05/06 01:39:12;;;;;;;;;;;;;;;;;;5052494;28;19909;-52
2022/05/06 01:41:40;;;;;;;;;;;;;;;;;;5054930;28;19909;-54
2022/05/06 01:44:07;;;;;;;;;;;;;;;;;;5070686;28;19931;-57
2022/05/06 01:46:33;;;;;;;;;;;;;;;;;;5072388;28;19916;-55
2022/05/06 01:49:00;;;;;;;;;;;;;;;;;;5072280;28;19999;-46
2022/05/06 01:51:27;;;;;;;;;;;;;;;;;;5072439;28;19916;-45
2022/05/06 01:53:53;;;;;;;;;;;;;;;;;;5070750;28;19921;-52
2022/05/06 01:56:20;;;;;;;;;;;;;;;;;;5071564;28;20378;-56
2022/05/06 01:58:46;;;;;;;;;;;;;;;;;;5072620;28;19908;-52
2022/05/06 02:01:13;;;;;;;;;;;;;;;;;;5071360;28;19988;-51
2022/05/06 02:06:24;;;;;;;;;;;;;;;;;;5072079;28;19935;-58
2022/05/06 02:08:50;;;;;;;;;;;;;;;;;;5072414;28;19919;-49
2022/05/06 02:11:17;;;;;;;;;;;;;;;;;;5070784;28;20363;-56
2022/05/06 02:13:43;;;;;;;;;;;;;;;;;;5071409;28;19961;-53
2022/05/06 02:16:10;;;;;;;;;;;;;;;;;;5071868;28;19951;-54
2022/05/06 02:18:36;;;;;;;;;;;;;;;;;;5071963;28;20300;-60
2022/05/06 02:21:02;;;;;;;;;;;;;;;;;;5073196;28;19912;-48
2022/05/06 02:23:29;;;;;;;;;;;;;;;;;;5075729;28;20244;-57
2022/05/06 02:25:56;;;;;;;;;;;;;;;;;;5075523;28;19982;-57
2022/05/06 02:28:23;;;;;;;;;;;;;;;;;;5075354;28;19908;-53
2022/05/06 02:33:34;;;;;;;;;;;;;;;;;;5075678;28;19931;-55
2022/05/06 02:36:00;;;;;;;;;;;;;;;;;;5075900;28;20021;-56
2022/05/06 02:38:26;;;;;;;;;;;;;;;;;;5075106;28;19916;-55
2022/05/06 02:40:53;;;;;;;;;;;;;;;;;;5075587;28;19908;-57
2022/05/06 02:43:19;;;;;;;;;;;;;;;;;;5075141;28;19916;-49
2022/05/06 02:45:46;;;;;;;;;;;;;;;;;;5075628;28;20004;-59
2022/05/06 02:48:12;;;;;;;;;;;;;;;;;;5075838;28;20028;-55
2022/05/06 02:50:41;;;;;;;;;;;;;;;;;;5075574;28;19912;-59
2022/05/06 02:53:07;;;;;;;;;;;;;;;;;;5075761;28;19908;-58
2022/05/06 02:55:34;;;;;;;;;;;;;;;;;;5067728;28;19974;-55
2022/05/06 02:58:00;;;;;;;;;;;;;;;;;;5074620;28;19916;-55
2022/05/06 03:00:28;;;;;;;;;;;;;;;;;;5073690;28;19916;-54
2022/05/06 03:02:56;;;;;;;;;;;;;;;;;;5053114;28;19909;-57
2022/05/06 03:05:23;;;;;;;;;;;;;;;;;;5055168;28;20018;-56
2022/05/06 03:07:49;;;;;;;;;;;;;;;;;;5054405;28;19923;-52
2022/05/06 03:10:16;;;;;;;;;;;;;;;;;;5055526;28;20003;-58
2022/05/06 03:12:42;;;;;;;;;;;;;;;;;;5054863;28;19908;-50
2022/05/06 03:15:09;;;;;;;;;;;;;;;;;;5054535;28;19924;-58
2022/05/06 03:17:35;;;;;;;;;;;;;;;;;;5054533;28;20367;-55
2022/05/06 03:20:04;;;;;;;;;;;;;;;;;;5054655;28;20005;-53
2022/05/06 03:22:31;;;;;;;;;;;;;;;;;;5054784;28;19912;-57
2022/05/06 03:24:57;;;;;;;;;;;;;;;;;;5054459;28;19953;-56
2022/05/06 03:30:08;;;;;;;;;;;;;;;;;;5054604;28;19916;-46
2022/05/06 03:32:35;;;;;;;;;;;;;;;;;;5053576;28;19912;-58
2022/05/06 03:35:02;;;;;;;;;;;;;;;;;;5054670;28;19917;-57
2022/05/06 03:37:28;;;;;;;;;;;;;;;;;;5054772;28;19909;-48
2022/05/06 03:39:55;;;;;;;;;;;;;;;;;;5053833;28;20000;-55
2022/05/06 03:42:21;;;;;;;;;;;;;;;;;;5054352;28;20072;-55
2022/05/06 03:44:48;;;;;;;;;;;;;;;;;;5062442;28;20610;-53
2022/05/06 03:47:15;;;;;;;;;;;;;;;;;;5074088;28;19912;-56
2022/05/06 03:49:41;;;;;;;;;;;;;;;;;;5072387;28;20404;-58
2022/05/06 03:52:08;;;;;;;;;;;;;;;;;;5072649;28;19965;-57
2022/05/06 03:54:34;;;;;;;;;;;;;;;;;;5074392;28;19920;-50
2022/05/06 03:57:01;;;;;;;;;;;;;;;;;;5074400;28;19908;-53
2022/05/06 03:59:28;;;;;;;;;;;;;;;;;;5072924;28;20347;-53
2022/05/06 04:01:54;;;;;;;;;;;;;;;;;;5073961;28;19909;-54
2022/05/06 04:04:21;;;;;;;;;;;;;;;;;;5073889;28;19908;-60
2022/05/06 04:06:48;;;;;;;;;;;;;;;;;;5073382;28;19927;-51
2022/05/06 04:09:14;;;;;;;;;;;;;;;;;;5073577;28;19973;-58
2022/05/06 04:11:40;;;;;;;;;;;;;;;;;;5073653;28;19908;-58
2022/05/06 04:14:09;;;;;;;;;;;;;;;;;;5073710;28;20179;-57
2022/05/06 04:16:36;;;;;;;;;;;;;;;;;;5074153;28;19908;-56
2022/05/06 04:19:02;;;;;;;;;;;;;;;;;;5073818;28;19912;-53
2022/05/06 04:24:13;;;;;;;;;;;;;;;;;;5073973;28;19920;-55
2022/05/06 04:26:40;;;;;;;;;;;;;;;;;;5073781;28;20375;-54
2022/05/06 04:29:06;;;;;;;;;;;;;;;;;;5073590;28;20213;-54
2022/05/06 04:31:34;;;;;;;;;;;;;;;;;;5073740;28;19916;-54
2022/05/06 04:34:00;;;;;;;;;;;;;;;;;;5073158;28;20283;-58
2022/05/06 04:36:27;;;;;;;;;;;;;;;;;;5072804;28;20278;-53
2022/05/06 04:38:53;;;;;;;;;;;;;;;;;;5071614;28;19931;-54
2022/05/06 04:41:20;;;;;;;;;;;;;;;;;;5073160;28;19920;-57
2022/05/06 04:43:46;;;;;;;;;;;;;;;;;;5073059;28;19908;-54
2022/05/06 04:46:13;;;;;;;;;;;;;;;;;;5073281;28;19962;-57
2022/05/06 04:48:39;;;;;;;;;;;;;;;;;;5073015;28;19909;-58
2022/05/06 04:51:06;;;;;;;;;;;;;;;;;;5073279;28;19908;-56
2022/05/06 04:53:32;;;;;;;;;;;;;;;;;;5072272;28;19912;-54
2022/05/06 04:55:59;;;;;;;;;;;;;;;;;;5072060;28;19987;-53
2022/05/06 04:58:25;;;;;;;;;;;;;;;;;;5072992;28;19924;-56
2022/05/06 05:00:52;;;;;;;;;;;;;;;;;;5072856;28;19909;-59
2022/05/06 05:03:20;;;;;;;;;;;;;;;;;;5072877;28;20003;-56
2022/05/06 05:05:48;;;;;;;;;;;;;;;;;;5072144;28;19996;-47
2022/05/06 05:08:14;;;;;;;;;;;;;;;;;;5072143;28;19995;-58
2022/05/06 05:10:41;;;;;;;;;;;;;;;;;;5072624;28;19912;-53
2022/05/06 05:13:07;;;;;;;;;;;;;;;;;;5072928;28;19917;-58
2022/05/06 05:15:33;;;;;;;;;;;;;;;;;;5072872;28;19978;-57
2022/05/06 05:18:00;;;;;;;;;;;;;;;;;;5072067;28;19920;-53
2022/05/06 05:20:26;;;;;;;;;;;;;;;;;;5072538;28;20022;-58
2022/05/06 05:22:53;;;;;;;;;;;;;;;;;;5072533;28;19908;-50
2022/05/06 05:25:19;;;;;;;;;;;;;;;;;;5072658;28;20232;-53
2022/05/06 05:27:46;;;;;;;;;;;;;;;;;;5072870;28;19978;-58
2022/05/06 05:30:12;;;;;;;;;;;;;;;;;;5072969;28;19931;-54
2022/05/06 05:32:39;;;;;;;;;;;;;;;;;;5072016;28;19908;-56
2022/05/06 05:35:06;;;;;;;;;;;;;;;;;;5072827;28;19964;-56
2022/05/06 05:37:32;;;;;;;;;;;;;;;;;;5071872;28;19954;-55
2022/05/06 05:39:58;;;;;;;;;;;;;;;;;;5072061;28;19915;-51
2022/05/06 05:42:28;;;;;;;;;;;;;;;;;;5072056;28;19931;-57
2022/05/06 05:50:27;;;;;;;;;;;;;;;;;;5072555;28;19915;-55
2022/05/06 05:52:54;;;;;;;;;;;;;;;;;;5072082;28;19961;-59
2022/05/06 05:55:21;;;;;;;;;;;;;;;;;;5072444;28;19951;-55
2022/05/06 05:57:47;;;;;;;;;;;;;;;;;;5076123;28;19912;-58
2022/05/06 06:00:14;;;;;;;;;;;;;;;;;;5076280;28;19981;-53
2022/05/06 06:02:40;;;;;;;;;;;;;;;;;;5076181;28;19913;-54
2022/05/06 06:05:07;;;;;;;;;;;;;;;;;;5075026;28;19915;-56
2022/05/06 06:07:33;;;;;;;;;;;;;;;;;;5076252;28;19928;-54
2022/05/06 06:10:00;;;;;;;;;;;;;;;;;;5076072;28;19997;-51
2022/05/06 06:12:26;;;;;;;;;;;;;;;;;;5076204;28;20271;-56
2022/05/06 06:14:55;;;;;;;;;;;;;;;;;;5075779;28;19916;-49
2022/05/06 06:17:22;;;;;;;;;;;;;;;;;;5076010;28;20033;-53
2022/05/06 06:19:49;;;;;;;;;;;;;;;;;;5075568;28;20247;-49
2022/05/06 06:22:15;;;;;;;;;;;;;;;;;;5075963;28;19915;-55
2022/05/06 06:24:42;;;;;;;;;;;;;;;;;;5076270;28;19908;-54
2022/05/06 06:27:08;;;;;;;;;;;;;;;;;;5075553;28;19966;-55
2022/05/06 06:29:35;;;;;;;;;;;;;;;;;;5075897;28;19914;-50
2022/05/06 06:32:02;;;;;;;;;;;;;;;;;;5074062;28;20094;-57
2022/05/06 06:34:28;;;;;;;;;;;;;;;;;;5075326;28;19916;-58
2022/05/06 06:36:55;;;;;;;;;;;;;;;;;;5075650;28;19915;-59
2022/05/06 06:39:21;;;;;;;;;;;;;;;;;;5074925;28;19949;-53
2022/05/06 06:41:48;;;;;;;;;;;;;;;;;;5074762;28;19909;-49
2022/05/06 06:44:14;;;;;;;;;;;;;;;;;;5075471;28;19908;-57
2022/05/06 06:46:40;;;;;;;;;;;;;;;;;;5074948;28;19971;-51
2022/05/06 06:49:07;;;;;;;;;;;;;;;;;;5074815;28;19944;-57
2022/05/06 06:51:34;;;;;;;;;;;;;;;;;;5075328;28;19954;-56
2022/05/06 06:54:00;;;;;;;;;;;;;;;;;;5074743;28;20011;-57
2022/05/06 06:56:27;;;;;;;;;;;;;;;;;;5075029;28;19909;-52
2022/05/06 06:58:53;;;;;;;;;;;;;;;;;;5073795;28;19905;-52
2022/05/06 07:01:21;;;;;;;;;;;;;;;;;;5075318;28;19913;-57
2022/05/06 07:03:47;;;;;;;;;;;;;;;;;;5074644;28;19911;-56
2022/05/06 07:11:57;;;;;;;;;;;;;;;;;;5074978;28;19915;-57
2022/05/06 07:14:25;;;;;;;;;;;;;;;;;;5073787;28;19951;-52
2022/05/06 07:16:51;;;;;;;;;;;;;;;;;;5074694;28;19914;-58
2022/05/06 07:19:18;;;;;;;;;;;;;;;;;;5075187;28;19915;-58
2022/05/06 07:21:44;;;;;;;;;;;;;;;;;;5075029;28;19913;-56
2022/05/06 07:24:11;;;;;;;;;;;;;;;;;;5074367;28;19958;-54
2022/05/06 07:26:37;;;;;;;;;;;;;;;;;;5074631;28;19913;-53
2022/05/06 07:29:04;;;;;;;;;;;;;;;;;;5074315;28;19908;-51
2022/05/06 07:31:31;;;;;;;;;;;;;;;;;;5074831;28;19917;-56
2022/05/06 07:33:57;;;;;;;;;;;;;;;;;;5074281;28;19916;-52
2022/05/06 07:36:24;;;;;;;;;;;;;;;;;;5074006;28;19999;-57
2022/05/06 07:38:50;;;;;;;;;;;;;;;;;;5074456;28;20270;-57
2022/05/06 07:41:17;;;;;;;;;;;;;;;;;;5073789;28;19999;-56
2022/05/06 07:43:43;;;;;;;;;;;;;;;;;;5074469;28;20320;-60
2022/05/06 07:46:10;;;;;;;;;;;;;;;;;;5073652;28;19919;-48
2022/05/06 07:48:36;;;;;;;;;;;;;;;;;;5074532;28;19916;-58
2022/05/06 07:51:03;;;;;;;;;;;;;;;;;;5074167;28;19935;-57
2022/05/06 07:53:29;;;;;;;;;;;;;;;;;;5074416;28;19915;-59
2022/05/06 07:55:56;;;;;;;;;;;;;;;;;;5073829;28;20370;-54
2022/05/06 07:58:22;;;;;;;;;;;;;;;;;;5074251;28;20378;-52
2022/05/06 08:00:50;;;;;;;;;;;;;;;;;;5074765;28;19962;-57
2022/05/06 08:06:02;;;;;;;;;;;;;;;;;;5074095;28;20374;-55
2022/05/06 08:08:30;;;;;;;;;;;;;;;;;;5074425;28;19915;-58
2022/05/06 08:10:57;;;;;;;;;;;;;;;;;;5074179;28;20299;-49
2022/05/06 08:13:23;;;;;;;;;;;;;;;;;;5074562;28;19913;-53
2022/05/06 08:15:50;;;;;;;;;;;;;;;;;;5073200;28;20007;-45
2022/05/06 08:18:16;;;;;;;;;;;;;;;;;;5073739;28;19909;-54
2022/05/06 08:20:43;;;;;;;;;;;;;;;;;;5074232;28;19942;-55
2022/05/06 08:23:10;;;;;;;;;;;;;;;;;;5074146;28;19944;-51
2022/05/06 08:25:36;;;;;;;;;;;;;;;;;;5074241;28;19977;-49
2022/05/06 08:28:03;;;;;;;;;;;;;;;;;;5073405;28;19930;-53
2022/05/06 08:30:29;;;;;;;;;;;;;;;;;;5074304;28;19908;-52
2022/05/06 08:32:56;;;;;;;;;;;;;;;;;;5074746;28;19999;-56
2022/05/06 08:35:23;;;;;;;;;;;;;;;;;;5073927;28;19916;-53
2022/05/06 08:37:49;;;;;;;;;;;;;;;;;;5073514;28;19908;-54
2022/05/06 08:40:17;;;;;;;;;;;;;;;;;;5073709;28;19962;-51
2022/05/06 08:42:43;;;;;;;;;;;;;;;;;;5073297;28;19969;-60
2022/05/06 08:50:51;;;;;;;;;;;;;;;;;;5073516;28;20053;-51
2022/05/06 08:53:18;;;;;;;;;;;;;;;;;;5074321;28;19916;-53
2022/05/06 08:55:44;;;;;;;;;;;;;;;;;;5072406;28;19973;-55
2022/05/06 08:58:10;;;;;;;;;;;;;;;;;;5074156;28;19917;-53
2022/05/06 09:00:37;;;;;;;;;;;;;;;;;;5073744;28;19951;-58
2022/05/06 09:03:03;;;;;;;;;;;;;;;;;;5073594;28;19957;-56
2022/05/06 09:05:31;;;;;;;;;;;;;;;;;;5073196;28;19913;-53
2022/05/06 09:07:58;;;;;;;;;;;;;;;;;;5073343;28;19916;-59
2022/05/06 09:10:24;;;;;;;;;;;;;;;;;;5073799;28;19920;-54
2022/05/06 09:12:50;;;;;;;;;;;;;;;;;;5073405;28;19964;-53
2022/05/06 09:18:02;;;;;;;;;;;;;;;;;;5073085;28;19919;-51
2022/05/06 09:20:28;;;;;;;;;;;;;;;;;;5073347;28;20268;-59
2022/05/06 09:22:55;;;;;;;;;;;;;;;;;;5073578;28;20003;-58
2022/05/06 09:25:21;;;;;;;;;;;;;;;;;;5074268;28;20275;-57
2022/05/06 09:27:48;;;;;;;;;;;;;;;;;;5072945;28;19924;-54
2022/05/06 09:30:14;;;;;;;;;;;;;;;;;;5071783;28;19908;-49
2022/05/06 09:32:41;;;;;;;;;;;;;;;;;;5073272;28;20022;-51
2022/05/06 09:35:09;;;;;;;;;;;;;;;;;;5073051;28;19923;-56
2022/05/06 09:37:36;;;;;;;;;;;;;;;;;;5073177;28;19962;-49
2022/05/06 09:40:03;;;;;;;;;;;;;;;;;;5073031;28;19948;-55
2022/05/06 09:42:29;;;;;;;;;;;;;;;;;;5072959;28;19912;-53
2022/05/06 09:44:55;;;;;;;;;;;;;;;;;;5073034;28;19908;-54
2022/05/06 09:47:24;;;;;;;;;;;;;;;;;;5073131;28;19909;-46
2022/05/06 09:49:52;;;;;;;;;;;;;;;;;;5072618;28;19981;-57
2022/05/06 09:52:18;;;;;;;;;;;;;;;;;;5073299;28;19909;-51
2022/05/06 09:54:44;;;;;;;;;;;;;;;;;;5073273;28;19917;-52
2022/05/06 09:57:11;;;;;;;;;;;;;;;;;;5072828;28;20282;-57
2022/05/06 09:59:37;;;;;;;;;;;;;;;;;;5072721;28;20017;-54
2022/05/06 10:02:04;;;;;;;;;;;;;;;;;;5072576;28;20003;-51
2022/05/06 10:04:30;;;;;;;;;;;;;;;;;;5072857;28;19935;-59
2022/05/06 10:06:57;;;;;;;;;;;;;;;;;;5072584;28;19925;-47
2022/05/06 10:09:23;;;;;;;;;;;;;;;;;;5072718;28;19908;-46
2022/05/06 10:11:51;;;;;;;;;;;;;;;;;;5072238;28;19912;-56
2022/05/06 10:14:18;;;;;;;;;;;;;;;;;;5072409;28;19912;-57
2022/05/06 10:16:45;;;;;;;;;;;;;;;;;;5072506;28;19916;-51
2022/05/06 10:19:11;;;;;;;;;;;;;;;;;;5072932;28;19909;-52
2022/05/06 10:21:38;;;;;;;;;;;;;;;;;;5072382;28;20315;-51
2022/05/06 10:24:04;;;;;;;;;;;;;;;;;;5072243;28;19916;-56
2022/05/06 10:26:30;;;;;;;;;;;;;;;;;;5071931;28;19937;-56
2022/05/06 10:34:29;;;;;;;;;;;;;;;;;;5072279;28;19958;-47
2022/05/06 10:36:55;;;;;;;;;;;;;;;;;;5072343;28;19962;-56
2022/05/06 10:39:22;;;;;;;;;;;;;;;;;;5072184;28;20271;-54
2022/05/06 10:41:48;;;;;;;;;;;;;;;;;;5072822;28;20325;-55
2022/05/06 10:44:15;;;;;;;;;;;;;;;;;;5076082;28;19909;-50
2022/05/06 10:46:41;;;;;;;;;;;;;;;;;;5076148;28;19920;-49
2022/05/06 10:49:07;;;;;;;;;;;;;;;;;;5076120;28;19975;-57
2022/05/06 10:51:34;;;;;;;;;;;;;;;;;;5075762;28;19915;-50
2022/05/06 10:54:01;;;;;;;;;;;;;;;;;;5075634;28;20335;-53
2022/05/06 10:56:27;;;;;;;;;;;;;;;;;;5075807;28;20429;-58
2022/05/06 10:58:53;;;;;;;;;;;;;;;;;;5075941;28;20259;-57
2022/05/06 11:01:20;;;;;;;;;;;;;;;;;;5076161;28;20350;-59
2022/05/06 11:03:46;;;;;;;;;;;;;;;;;;5075750;28;19908;-46
2022/05/06 11:06:14;;;;;;;;;;;;;;;;;;5075507;28;19966;-57
2022/05/06 11:08:40;;;;;;;;;;;;;;;;;;5075680;28;20307;-54
2022/05/06 11:11:07;;;;;;;;;;;;;;;;;;5075696;28;19961;-58
2022/05/06 11:13:34;;;;;;;;;;;;;;;;;;5075350;28;19915;-57
2022/05/06 11:16:01;;;;;;;;;;;;;;;;;;5075508;28;20382;-57
2022/05/06 11:18:27;;;;;;;;;;;;;;;;;;5075483;28;20352;-56
2022/05/06 11:20:54;;;;;;;;;;;;;;;;;;5076058;28;19946;-59
2022/05/06 11:23:21;;;;;;;;;;;;;;;;;;5075460;28;20007;-56
2022/05/06 11:25:48;;;;;;;;;;;;;;;;;;5074532;28;20388;-50
2022/05/06 11:28:14;;;;;;;;;;;;;;;;;;5075245;28;20271;-52
2022/05/06 11:30:41;;;;;;;;;;;;;;;;;;5075310;28;19908;-56
2022/05/06 11:33:07;;;;;;;;;;;;;;;;;;5075417;28;20359;-55
2022/05/06 11:35:34;;;;;;;;;;;;;;;;;;5075268;28;19917;-58
2022/05/06 11:38:00;;;;;;;;;;;;;;;;;;5075109;28;19912;-49
2022/05/06 11:42:53;;;;;;;;;;;;;;;;;;5075422;28;19908;-52
2022/05/06 11:48:05;;;;;;;;;;;;;;;;;;5074851;28;20386;-56
2022/05/06 11:50:32;;;;;;;;;;;;;;;;;;5074763;28;19915;-49
2022/05/06 11:53:01;;;;;;;;;;;;;;;;;;5074009;28;19909;-55
2022/05/06 11:55:28;;;;;;;;;;;;;;;;;;5074242;28;20007;-56
2022/05/06 11:57:54;;;;;;;;;;;;;;;;;;5074211;28;19979;-57
2022/05/06 12:00:20;;;;;;;;;;;;;;;;;;5074540;28;19913;-55
2022/05/06 12:02:48;;;;;;;;;;;;;;;;;;5074721;28;20332;-55
2022/05/06 12:05:14;;;;;;;;;;;;;;;;;;5074556;28;19916;-59
2022/05/06 12:07:41;;;;;;;;;;;;;;;;;;5074438;28;19924;-52
2022/05/06 12:10:08;;;;;;;;;;;;;;;;;;5074071;28;20049;-54
2022/05/06 12:12:35;;;;;;;;;;;;;;;;;;5072782;28;19908;-55
2022/05/06 12:15:01;;;;;;;;;;;;;;;;;;5074225;28;20283;-57
2022/05/06 12:17:32;;;;;;;;;;;;;;;;;;5073574;28;20203;-58
2022/05/06 12:19:59;;;;;;;;;;;;;;;;;;5074272;28;20003;-58
2022/05/06 12:22:25;;;;;;;;;;;;;;;;;;5074178;28;20300;-56
2022/05/06 12:24:52;;;;;;;;;;;;;;;;;;5073870;28;20276;-57
2022/05/06 12:27:19;;;;;;;;;;;;;;;;;;5073581;28;19926;-59
2022/05/06 12:29:46;;;;;;;;;;;;;;;;;;5073663;28;19908;-56
2022/05/06 12:32:13;;;;;;;;;;;;;;;;;;5073961;28;19930;-57
2022/05/06 12:34:39;;;;;;;;;;;;;;;;;;5073522;28;19966;-55
2022/05/06 12:37:06;;;;;;;;;;;;;;;;;;5073565;28;19909;-57
2022/05/06 12:39:32;;;;;;;;;;;;;;;;;;5073784;28;19915;-56
2022/05/06 12:41:59;;;;;;;;;;;;;;;;;;5073492;28;20030;-47
2022/05/06 12:44:27;;;;;;;;;;;;;;;;;;5074013;28;19909;-50
2022/05/06 12:46:53;;;;;;;;;;;;;;;;;;5073450;28;19916;-51
2022/05/06 12:52:04;;;;;;;;;;;;;;;;;;5073712;28;20347;-57
2022/05/06 12:54:30;;;;;;;;;;;;;;;;;;5073226;28;19924;-56
2022/05/06 12:56:57;;;;;;;;;;;;;;;;;;5073206;28;19932;-56
2022/05/06 12:59:23;;;;;;;;;;;;;;;;;;5073196;28;20256;-54
2022/05/06 13:01:50;;;;;;;;;;;;;;;;;;5073020;28;20387;-56
2022/05/06 13:04:16;;;;;;;;;;;;;;;;;;5073126;28;20359;-57
2022/05/06 13:06:43;;;;;;;;;;;;;;;;;;5072930;28;19985;-55
2022/05/06 13:09:10;;;;;;;;;;;;;;;;;;5073360;28;20387;-56
2022/05/06 13:11:36;;;;;;;;;;;;;;;;;;5072806;28;20309;-56
2022/05/06 13:14:02;;;;;;;;;;;;;;;;;;5071482;28;19912;-53
2022/05/06 13:16:29;;;;;;;;;;;;;;;;;;5073131;28;19913;-56
2022/05/06 13:18:55;;;;;;;;;;;;;;;;;;5072993;28;19909;-58
2022/05/06 13:21:22;;;;;;;;;;;;;;;;;;5073005;28;19960;-58
2022/05/06 13:23:48;;;;;;;;;;;;;;;;;;5072803;28;19909;-58
2022/05/06 13:26:15;;;;;;;;;;;;;;;;;;5072513;28;19908;-53
2022/05/06 13:28:42;;;;;;;;;;;;;;;;;;5072755;28;19908;-54
2022/05/06 13:31:09;;;;;;;;;;;;;;;;;;5073145;28;19909;-57
2022/05/06 13:33:37;;;;;;;;;;;;;;;;;;5073159;28;19909;-59
2022/05/06 13:36:03;;;;;;;;;;;;;;;;;;5072510;28;19935;-56
2022/05/06 13:38:29;;;;;;;;;;;;;;;;;;5073456;28;19935;-58
2022/05/06 13:40:56;;;;;;;;;;;;;;;;;;5072812;28;19915;-60
2022/05/06 13:43:22;;;;;;;;;;;;;;;;;;5072891;28;19909;-54
2022/05/06 13:45:49;;;;;;;;;;;;;;;;;;5072732;28;19942;-52
2022/05/06 13:48:15;;;;;;;;;;;;;;;;;;5071675;28;19915;-55
2022/05/06 13:50:42;;;;;;;;;;;;;;;;;;5072673;28;19909;-58
2022/05/06 13:53:09;;;;;;;;;;;;;;;;;;5071199;28;20347;-55
2022/05/06 14:01:05;;;;;;;;;;;;;;;;;;5072837;28;19916;-58
2022/05/06 14:03:31;;;;;;;;;;;;;;;;;;5072827;28;19999;-58
2022/05/06 14:05:58;;;;;;;;;;;;;;;;;;5072129;28;20325;-54
2022/05/06 14:08:24;;;;;;;;;;;;;;;;;;5072484;28;19908;-58
2022/05/06 14:10:51;;;;;;;;;;;;;;;;;;5072360;28;19959;-55
2022/05/06 14:13:17;;;;;;;;;;;;;;;;;;5072450;28;19923;-58
2022/05/06 14:15:44;;;;;;;;;;;;;;;;;;5072465;28;20374;-54
2022/05/06 14:18:10;;;;;;;;;;;;;;;;;;5075432;28;19913;-56
2022/05/06 14:20:37;;;;;;;;;;;;;;;;;;5076631;28;19908;-59
2022/05/06 14:23:03;;;;;;;;;;;;;;;;;;5076956;28;20049;-56
2022/05/06 14:25:30;;;;;;;;;;;;;;;;;;5076351;28;19912;-56
2022/05/06 14:27:56;;;;;;;;;;;;;;;;;;5076647;28;19997;-54
2022/05/06 14:30:23;;;;;;;;;;;;;;;;;;5076454;28;19981;-55
2022/05/06 14:32:49;;;;;;;;;;;;;;;;;;5076480;28;19916;-59
2022/05/06 14:35:20;;;;;;;;;;;;;;;;;;5076524;28;19917;-56
2022/05/06 14:37:49;;;;;;;;;;;;;;;;;;5065025;28;20271;-56
2022/05/06 14:40:19;;;;;;;;;;;;;;;;;;5056005;28;19909;-54
2022/05/06 14:42:45;;;;;;;;;;;;;;;;;;5054438;28;19908;-54
2022/05/06 14:45:12;;;;;;;;;;;;;;;;;;5056375;28;19909;-54
2022/05/06 14:47:38;;;;;;;;;;;;;;;;;;5056164;28;19916;-55
2022/05/06 14:50:05;;;;;;;;;;;;;;;;;;5055700;28;19908;-55
2022/05/06 14:52:31;;;;;;;;;;;;;;;;;;5056087;28;19909;-46
2022/05/06 14:54:59;;;;;;;;;;;;;;;;;;5055735;28;19913;-58
2022/05/06 14:57:25;;;;;;;;;;;;;;;;;;5055919;28;19915;-55
2022/05/06 14:59:52;;;;;;;;;;;;;;;;;;5055993;28;19909;-49
2022/05/06 15:02:18;;;;;;;;;;;;;;;;;;5056022;28;19955;-54
2022/05/06 15:04:45;;;;;;;;;;;;;;;;;;5055854;28;19916;-49
2022/05/06 15:07:12;;;;;;;;;;;;;;;;;;5055678;28;19921;-55
2022/05/06 15:09:38;;;;;;;;;;;;;;;;;;5055398;28;20415;-51
2022/05/06 15:12:05;;;;;;;;;;;;;;;;;;5055347;28;19932;-57
2022/05/06 15:14:32;;;;;;;;;;;;;;;;;;5055636;28;19917;-55
2022/05/06 15:16:58;;;;;;;;;;;;;;;;;;5055694;28;19999;-55
2022/05/06 15:19:25;;;;;;;;;;;;;;;;;;5055609;28;19970;-56
2022/05/06 15:21:55;;;;;;;;;;;;;;;;;;5054190;28;19909;-52
2022/05/06 15:24:24;;;;;;;;;;;;;;;;;;5060899;28;19962;-53
2022/05/06 15:26:50;;;;;;;;;;;;;;;;;;5075919;28;19908;-54
2022/05/06 15:29:17;;;;;;;;;;;;;;;;;;5075268;28;19923;-55
2022/05/06 15:31:43;;;;;;;;;;;;;;;;;;5075607;28;19908;-51
2022/05/06 15:34:10;;;;;;;;;;;;;;;;;;5075252;28;20380;-53
2022/05/06 15:36:36;;;;;;;;;;;;;;;;;;5075541;28;19913;-50
2022/05/06 15:39:03;;;;;;;;;;;;;;;;;;5071797;28;19954;-52
2022/05/06 15:41:29;;;;;;;;;;;;;;;;;;5055284;28;20278;-53
2022/05/06 15:43:56;;;;;;;;;;;;;;;;;;5054887;28;20260;-51
2022/05/06 15:46:22;;;;;;;;;;;;;;;;;;5055520;28;20383;-54
2022/05/06 15:48:49;;;;;;;;;;;;;;;;;;5055310;28;20371;-57
2022/05/06 15:51:18;;;;;;;;;;;;;;;;;;5055228;28;19909;-50
2022/05/06 15:53:44;;;;;;;;;;;;;;;;;;5054827;28;19959;-52
2022/05/06 15:56:11;;;;;;;;;;;;;;;;;;5054656;28;19920;-53
2022/05/06 15:58:37;;;;;;;;;;;;;;;;;;5054901;28;19959;-50
2022/05/06 16:01:04;;;;;;;;;;;;;;;;;;5054946;28;19962;-48
2022/05/06 16:03:30;;;;;;;;;;;;;;;;;;5055250;28;20016;-47
2022/05/06 16:05:57;;;;;;;;;;;;;;;;;;5054516;28;19912;-49
2022/05/06 16:08:23;;;;;;;;;;;;;;;;;;5054636;28;20459;-54
2022/05/06 16:10:50;;;;;;;;;;;;;;;;;;5054466;28;19912;-51
2022/05/06 16:13:16;;;;;;;;;;;;;;;;;;5054702;28;20003;-55
2022/05/06 16:15:43;;;;;;;;;;;;;;;;;;5054626;28;19921;-51
2022/05/06 16:18:09;;;;;;;;;;;;;;;;;;5054479;28;19963;-48
2022/05/06 16:20:36;;;;;;;;;;;;;;;;;;5054623;28;19908;-44
2022/05/06 16:23:02;;;;;;;;;;;;;;;;;;5054378;28;20050;-43
2022/05/06 16:25:29;;;;;;;;;;;;;;;;;;5069724;28;19915;-53
2022/05/06 16:27:58;;;;;;;;;;;;;;;;;;5073988;28;19983;-48
2022/05/06 16:30:24;;;;;;;;;;;;;;;;;;5074347;28;19931;-49
2022/05/06 16:32:51;;;;;;;;;;;;;;;;;;5074946;28;19914;-52
2022/05/06 16:38:04;;;;;;;;;;;;;;;;;;5074025;28;19916;-53
2022/05/06 16:40:30;;;;;;;;;;;;;;;;;;5073395;28;19908;-57
2022/05/06 16:43:00;;;;;;;;;;;;;;;;;;5074070;28;19908;-53
2022/05/06 16:45:27;;;;;;;;;;;;;;;;;;5074196;28;19911;-55
2022/05/06 16:47:53;;;;;;;;;;;;;;;;;;5073632;28;19909;-57
2022/05/06 16:50:19;;;;;;;;;;;;;;;;;;5073661;28;19908;-57
2022/05/06 16:52:46;;;;;;;;;;;;;;;;;;5073168;28;20024;-50
2022/05/06 16:55:12;;;;;;;;;;;;;;;;;;5073252;28;20015;-54
2022/05/06 16:57:39;;;;;;;;;;;;;;;;;;5073692;28;19915;-55
2022/05/06 17:00:05;;;;;;;;;;;;;;;;;;5073557;28;19934;-55
2022/05/06 17:02:32;;;;;;;;;;;;;;;;;;5073947;28;20316;-53
2022/05/06 17:04:58;;;;;;;;;;;;;;;;;;5073669;28;20290;-57
2022/05/06 17:07:26;;;;;;;;;;;;;;;;;;5073597;28;20286;-57
2022/05/06 17:09:53;;;;;;;;;;;;;;;;;;5073190;28;19908;-57
2022/05/06 17:12:19;;;;;;;;;;;;;;;;;;5073463;28;19916;-56
2022/05/06 17:14:46;;;;;;;;;;;;;;;;;;5073023;28;20408;-55
2022/05/06 17:17:12;;;;;;;;;;;;;;;;;;5073577;28;19936;-57
2022/05/06 17:19:39;;;;;;;;;;;;;;;;;;5073545;28;19905;-57
2022/05/06 17:22:05;;;;;;;;;;;;;;;;;;5073199;28;19943;-56
2022/05/06 17:24:33;;;;;;;;;;;;;;;;;;5073114;28;19912;-57
2022/05/06 17:26:59;;;;;;;;;;;;;;;;;;5073287;28;19932;-53
2022/05/06 17:29:25;;;;;;;;;;;;;;;;;;5073188;28;19912;-55
2022/05/06 17:31:53;;;;;;;;;;;;;;;;;;5072903;28;20398;-48
2022/05/06 17:34:19;;;;;;;;;;;;;;;;;;5072746;28;19923;-54
2022/05/06 17:36:46;;;;;;;;;;;;;;;;;;5073111;28;19924;-48
2022/05/06 17:39:12;;;;;;;;;;;;;;;;;;5073035;28;19908;-43